Time;durP1;ratioP1;P1;durP2;ratioP2;P2;SDS_P1;SDS_P2;PMS_P1;PMS_P2;Temp;Humidity;BMP_temperature;BMP_pressure;BME280_temperature;BME280_humidity;BME280_pressure;Samples;Min_cycle;Max_cycle;Signal;HPM_P1;HPM_P2
2022/01/11 00:00:46;;;;;;;;;26.50;25.25;;;;;;;;5075339;28;45446;-64
2022/01/11 00:03:12;;;;;;;;;34.25;27.75;;;;;;;;5076086;28;46328;-63
2022/01/11 00:05:45;;;;;;;;;32.75;30.75;;;;;;;;5074974;28;45350;-63
2022/01/11 00:08:12;;;;;;;;;33.00;28.25;;;;;;;;5057636;28;45934;-63
2022/01/11 00:11:02;;;;;;;;;31.50;29.00;;;;;;;;5071333;28;45465;-64
2022/01/11 00:13:25;;;;;;;;;31.00;29.25;;;;;;;;5075128;28;45720;-63
2022/01/11 00:15:51;;;;;;;;;36.00;30.50;;;;;;;;5058184;28;45497;-64
2022/01/11 00:18:16;;;;;;;;;33.75;29.75;;;;;;;;5057790;28;45922;-63
2022/01/11 00:20:41;;;;;;;;;29.75;28.25;;;;;;;;5057309;28;45867;-64
2022/01/11 00:25:43;;;;;;;;;36.00;33.00;;;;;;;;5074260;28;45506;-64
2022/01/11 00:28:09;;;;;;;;;35.00;31.75;;;;;;;;5072255;28;45779;-64
2022/01/11 00:30:37;;;;;;;;;35.50;30.00;;;;;;;;5056015;28;45508;-64
2022/01/11 00:33:07;;;;;;;;;33.00;28.75;;;;;;;;5074051;28;45930;-64
2022/01/11 00:35:43;;;;;;;;;25.75;25.25;;;;;;;;5074286;28;45318;-63
2022/01/11 00:38:09;;;;;;;;;33.00;30.00;;;;;;;;5072916;28;45507;-64
2022/01/11 00:40:35;;;;;;;;;39.50;30.00;;;;;;;;5054443;28;45978;-64
2022/01/11 00:43:00;;;;;;;;;30.25;27.75;;;;;;;;5055886;28;47619;-64
2022/01/11 00:45:26;;;;;;;;;34.25;30.50;;;;;;;;5056291;28;45562;-64
2022/01/11 00:47:52;;;;;;;;;28.00;27.75;;;;;;;;5074222;28;45539;-64
2022/01/11 00:50:18;;;;;;;;;27.75;27.75;;;;;;;;5074944;28;45397;-64
2022/01/11 00:52:43;;;;;;;;;30.25;27.50;;;;;;;;5075173;28;45566;-64
2022/01/11 00:55:09;;;;;;;;;26.50;25.25;;;;;;;;5075782;28;45440;-64
2022/01/11 00:57:34;;;;;;;;;16.75;16.75;;;;;;;;5075438;28;45377;-63
2022/01/11 00:59:59;;;;;;;;;26.25;22.00;;;;;;;;5073499;28;47012;-64
2022/01/11 01:02:24;;;;;;;;;34.75;31.25;;;;;;;;5073495;28;46371;-64
2022/01/11 01:04:50;;;;;;;;;35.25;28.25;;;;;;;;5075043;28;45369;-62
2022/01/11 01:07:15;;;;;;;;;30.25;29.00;;;;;;;;5075038;28;45477;-63
2022/01/11 01:10:01;;;;;;;;;32.50;29.50;;;;;;;;5074389;28;45329;-62
2022/01/11 01:12:27;;;;;;;;;26.50;26.50;;;;;;;;5056760;28;47638;-63
2022/01/11 01:14:52;;;;;;;;;32.50;31.50;;;;;;;;5074539;28;45498;-63
2022/01/11 01:17:17;;;;;;;;;32.50;28.25;;;;;;;;5074676;28;45436;-64
2022/01/11 01:19:42;;;;;;;;;30.00;28.50;;;;;;;;5056435;28;45304;-63
2022/01/11 01:22:08;;;;;;;;;30.50;28.00;;;;;;;;5056983;28;46286;-62
2022/01/11 01:24:33;;;;;;;;;30.75;28.00;;;;;;;;5056386;28;45848;-64
2022/01/11 01:26:59;;;;;;;;;27.00;26.00;;;;;;;;5074814;28;45302;-63
2022/01/11 01:29:24;;;;;;;;;32.00;28.25;;;;;;;;5056675;28;45450;-64
2022/01/11 01:31:50;;;;;;;;;36.75;28.00;;;;;;;;5074320;28;46478;-63
2022/01/11 01:34:15;;;;;;;;;28.75;27.25;;;;;;;;5056491;28;45531;-64
2022/01/11 01:36:40;;;;;;;;;30.25;27.50;;;;;;;;5075000;28;45701;-63
2022/01/11 01:39:06;;;;;;;;;33.00;32.25;;;;;;;;5074573;27;45465;-64
2022/01/11 01:41:31;;;;;;;;;29.25;26.25;;;;;;;;5073913;28;46342;-63
2022/01/11 01:43:59;;;;;;;;;19.50;15.50;;;;;;;;5056397;28;45549;-64
2022/01/11 01:46:24;;;;;;;;;29.75;23.00;;;;;;;;5056466;28;45522;-64
2022/01/11 01:48:50;;;;;;;;;23.25;19.50;;;;;;;;5075120;28;45304;-63
2022/01/11 01:51:15;;;;;;;;;30.75;28.00;;;;;;;;5056052;28;47572;-63
2022/01/11 01:53:50;;;;;;;;;15.00;15.00;;;;;;;;5074364;28;45558;-63
2022/01/11 01:56:17;;;;;;;;;25.50;21.00;;;;;;;;5056075;28;45471;-63
2022/01/11 01:58:42;;;;;;;;;30.75;25.75;;;;;;;;5074332;28;45540;-63
2022/01/11 02:01:08;;;;;;;;;20.50;20.50;;;;;;;;5056038;28;48593;-62
2022/01/11 02:03:39;;;;;;;;;23.75;21.50;;;;;;;;5055828;28;45526;-63
2022/01/11 02:06:05;;;;;;;;;27.50;26.50;;;;;;;;5055452;28;44934;-63
2022/01/11 02:08:31;;;;;;;;;24.00;22.50;;;;;;;;5055405;28;45416;-63
2022/01/11 02:10:56;;;;;;;;;27.50;25.50;;;;;;;;5073863;28;46291;-62
2022/01/11 02:13:21;;;;;;;;;25.50;25.50;;;;;;;;5073930;28;45396;-64
2022/01/11 02:15:47;;;;;;;;;28.00;25.00;;;;;;;;5090091;27;45427;-64
2022/01/11 02:18:13;;;;;;;;;23.25;20.75;;;;;;;;5073733;28;45316;-63
2022/01/11 02:20:39;;;;;;;;;27.75;26.00;;;;;;;;5055164;28;47691;-63
2022/01/11 02:23:04;;;;;;;;;29.00;25.00;;;;;;;;5055632;28;45433;-63
2022/01/11 02:25:30;;;;;;;;;33.00;27.75;;;;;;;;5055720;28;45428;-62
2022/01/11 02:27:55;;;;;;;;;35.25;31.25;;;;;;;;5074321;28;45341;-63
2022/01/11 02:30:20;;;;;;;;;31.50;30.00;;;;;;;;5073488;28;45528;-62
2022/01/11 02:32:49;;;;;;;;;29.00;27.50;;;;;;;;5073502;28;45409;-64
2022/01/11 02:35:14;;;;;;;;;36.50;31.50;;;;;;;;5073526;28;45390;-63
2022/01/11 02:37:43;;;;;;;;;31.25;27.50;;;;;;;;5073592;28;45373;-63
2022/01/11 02:40:09;;;;;;;;;33.00;26.00;;;;;;;;5074147;28;46731;-62
2022/01/11 02:42:34;;;;;;;;;35.00;31.25;;;;;;;;5055328;28;45580;-64
2022/01/11 02:44:59;;;;;;;;;33.00;29.75;;;;;;;;5073571;28;45386;-63
2022/01/11 02:47:24;;;;;;;;;34.75;30.75;;;;;;;;5055276;28;45473;-63
2022/01/11 02:49:50;;;;;;;;;32.00;27.50;;;;;;;;5055116;28;48581;-63
2022/01/11 02:52:15;;;;;;;;;43.50;33.75;;;;;;;;5072396;28;45885;-62
2022/01/11 02:54:40;;;;;;;;;31.75;30.25;;;;;;;;5089370;27;45462;-62
2022/01/11 02:57:05;;;;;;;;;40.75;37.25;;;;;;;;5073555;28;44883;-63
2022/01/11 02:59:30;;;;;;;;;43.00;35.25;;;;;;;;5073163;28;46060;-63
2022/01/11 03:01:56;;;;;;;;;34.50;29.75;;;;;;;;5054773;28;45467;-63
2022/01/11 03:04:21;;;;;;;;;35.75;28.75;;;;;;;;5073693;27;45552;-63
2022/01/11 03:06:46;;;;;;;;;37.00;34.50;;;;;;;;5073429;28;45413;-63
2022/01/11 03:09:11;;;;;;;;;39.00;36.75;;;;;;;;5054773;28;47461;-63
2022/01/11 03:11:36;;;;;;;;;42.75;36.25;;;;;;;;5073301;28;45378;-62
2022/01/11 03:14:03;;;;;;;;;35.75;33.25;;;;;;;;5088962;27;45490;-63
2022/01/11 03:16:28;;;;;;;;;34.25;30.75;;;;;;;;5073478;27;45472;-63
2022/01/11 03:18:53;;;;;;;;;37.50;32.25;;;;;;;;5073580;28;45462;-63
2022/01/11 03:21:19;;;;;;;;;34.25;30.50;;;;;;;;5073259;28;45424;-64
2022/01/11 03:23:44;;;;;;;;;38.00;35.25;;;;;;;;5073291;28;45282;-63
2022/01/11 03:26:09;;;;;;;;;39.75;37.25;;;;;;;;5075116;28;45444;-61
2022/01/11 03:28:35;;;;;;;;;50.50;37.75;;;;;;;;5076744;28;45972;-62
2022/01/11 03:31:00;;;;;;;;;47.75;41.00;;;;;;;;5077037;28;45832;-62
2022/01/11 03:33:26;;;;;;;;;36.25;34.50;;;;;;;;5076811;28;45558;-62
2022/01/11 03:35:51;;;;;;;;;36.50;35.75;;;;;;;;5058258;28;45550;-62
2022/01/11 03:38:17;;;;;;;;;39.75;32.25;;;;;;;;5076311;27;45637;-62
2022/01/11 03:40:43;;;;;;;;;38.75;36.50;;;;;;;;5076386;28;45725;-63
2022/01/11 03:43:08;;;;;;;;;39.75;35.00;;;;;;;;5077156;28;45416;-62
2022/01/11 03:45:34;;;;;;;;;37.50;34.00;;;;;;;;5076382;28;45245;-62
2022/01/11 03:48:00;;;;;;;;;33.75;29.75;;;;;;;;5076059;28;45634;-63
2022/01/11 03:50:25;;;;;;;;;28.25;26.50;;;;;;;;5075853;28;45344;-63
2022/01/11 03:52:58;;;;;;;;;31.25;29.75;;;;;;;;5058296;28;45421;-63
2022/01/11 03:55:42;;;;;;;;;34.00;31.50;;;;;;;;5076729;28;45325;-63
2022/01/11 03:58:08;;;;;;;;;36.50;28.75;;;;;;;;5072718;28;46624;-62
2022/01/11 04:00:33;;;;;;;;;37.25;32.25;;;;;;;;5057510;28;47229;-63
2022/01/11 04:02:58;;;;;;;;;38.50;33.50;;;;;;;;5075844;28;45513;-62
2022/01/11 04:05:23;;;;;;;;;37.00;33.25;;;;;;;;5075652;28;45466;-62
2022/01/11 04:07:48;;;;;;;;;41.50;33.25;;;;;;;;5057488;28;47370;-62
2022/01/11 04:10:14;;;;;;;;;40.50;29.50;;;;;;;;5057790;28;46285;-62
2022/01/11 04:12:39;;;;;;;;;36.50;33.00;;;;;;;;5076325;28;45324;-64
2022/01/11 04:15:05;;;;;;;;;45.75;38.75;;;;;;;;5075926;28;45432;-62
2022/01/11 04:17:31;;;;;;;;;40.00;35.75;;;;;;;;5075826;28;47818;-64
2022/01/11 04:19:56;;;;;;;;;32.75;29.50;;;;;;;;5075831;27;45444;-63
2022/01/11 04:22:21;;;;;;;;;30.25;28.25;;;;;;;;5075889;28;45450;-63
2022/01/11 04:24:46;;;;;;;;;31.50;31.50;;;;;;;;5076477;28;45478;-62
2022/01/11 04:27:11;;;;;;;;;38.75;33.00;;;;;;;;5075621;28;46517;-63
2022/01/11 04:29:37;;;;;;;;;31.50;29.00;;;;;;;;5075501;28;45396;-62
2022/01/11 04:32:03;;;;;;;;;30.00;28.75;;;;;;;;5075281;28;45457;-61
2022/01/11 04:34:28;;;;;;;;;32.00;29.00;;;;;;;;5056284;28;45524;-63
2022/01/11 04:36:54;;;;;;;;;30.50;29.00;;;;;;;;5075526;28;45817;-62
2022/01/11 04:39:19;;;;;;;;;43.25;33.50;;;;;;;;5074786;27;45301;-63
2022/01/11 04:41:44;;;;;;;;;28.75;26.75;;;;;;;;5090129;27;45711;-63
2022/01/11 04:44:09;;;;;;;;;25.00;23.75;;;;;;;;5090876;27;45472;-64
2022/01/11 04:46:35;;;;;;;;;35.00;30.50;;;;;;;;5056742;28;48587;-63
2022/01/11 04:49:00;;;;;;;;;35.50;34.00;;;;;;;;5074362;28;45377;-63
2022/01/11 04:51:26;;;;;;;;;35.75;33.25;;;;;;;;5071615;27;45668;-63
2022/01/11 04:53:51;;;;;;;;;36.00;31.25;;;;;;;;5056080;28;45557;-62
2022/01/11 04:56:16;;;;;;;;;41.75;31.00;;;;;;;;5074341;28;45557;-63
2022/01/11 04:58:42;;;;;;;;;32.75;27.50;;;;;;;;5072930;28;45400;-63
2022/01/11 05:01:08;;;;;;;;;32.75;27.25;;;;;;;;5075222;28;46963;-63
2022/01/11 05:03:33;;;;;;;;;28.75;28.75;;;;;;;;5056821;28;45575;-63
2022/01/11 05:05:58;;;;;;;;;33.25;30.50;;;;;;;;5074525;28;46290;-62
2022/01/11 05:08:23;;;;;;;;;32.25;31.00;;;;;;;;5074599;28;45287;-63
2022/01/11 05:10:49;;;;;;;;;34.50;31.00;;;;;;;;5074893;28;45344;-63
2022/01/11 05:13:15;;;;;;;;;42.25;35.50;;;;;;;;5074866;28;45483;-64
2022/01/11 05:15:40;;;;;;;;;29.50;29.00;;;;;;;;5073579;28;46484;-64
2022/01/11 05:18:06;;;;;;;;;35.25;33.00;;;;;;;;5070644;28;45522;-62
2022/01/11 05:20:31;;;;;;;;;38.25;32.00;;;;;;;;5074051;28;45434;-63
2022/01/11 05:22:56;;;;;;;;;40.50;32.50;;;;;;;;5056107;28;47790;-62
2022/01/11 05:25:22;;;;;;;;;39.75;34.25;;;;;;;;5074597;28;46633;-63
2022/01/11 05:27:47;;;;;;;;;47.25;36.50;;;;;;;;5075044;28;45467;-63
2022/01/11 05:30:13;;;;;;;;;43.00;35.75;;;;;;;;5053953;28;45492;-62
2022/01/11 05:32:38;;;;;;;;;40.75;32.25;;;;;;;;5068648;27;45475;-62
2022/01/11 05:35:05;;;;;;;;;30.00;28.25;;;;;;;;5055513;28;47838;-62
2022/01/11 05:37:30;;;;;;;;;35.50;31.75;;;;;;;;5067623;27;45560;-62
2022/01/11 05:39:55;;;;;;;;;32.25;31.25;;;;;;;;5074516;28;45363;-63
2022/01/11 05:42:22;;;;;;;;;32.50;29.00;;;;;;;;5073148;28;45524;-63
2022/01/11 05:44:47;;;;;;;;;32.25;30.25;;;;;;;;5053692;28;47842;-64
2022/01/11 05:47:12;;;;;;;;;30.50;29.25;;;;;;;;5071434;28;45508;-62
2022/01/11 05:49:37;;;;;;;;;47.50;39.00;;;;;;;;5057282;28;45496;-63
2022/01/11 05:52:03;;;;;;;;;41.50;34.00;;;;;;;;5055512;28;45560;-62
2022/01/11 05:54:28;;;;;;;;;41.50;35.50;;;;;;;;5071949;28;45417;-64
2022/01/11 05:56:53;;;;;;;;;40.25;37.25;;;;;;;;5069830;28;46070;-63
2022/01/11 05:59:19;;;;;;;;;37.25;34.50;;;;;;;;5080804;27;45477;-63
2022/01/11 06:01:44;;;;;;;;;36.50;35.50;;;;;;;;5053584;28;45428;-62
2022/01/11 06:04:09;;;;;;;;;43.00;37.00;;;;;;;;5055841;27;47417;-64
2022/01/11 06:06:34;;;;;;;;;45.50;40.75;;;;;;;;5054811;28;45464;-62
2022/01/11 06:09:02;;;;;;;;;46.25;39.25;;;;;;;;5055038;28;45438;-64
2022/01/11 06:11:28;;;;;;;;;39.50;36.50;;;;;;;;5063372;28;45554;-63
2022/01/11 06:13:53;;;;;;;;;38.50;33.25;;;;;;;;5081843;27;48407;-64
2022/01/11 06:16:21;;;;;;;;;37.75;33.25;;;;;;;;5073838;28;45564;-65
2022/01/11 06:18:46;;;;;;;;;48.25;40.00;;;;;;;;5056477;28;45335;-64
2022/01/11 06:21:11;;;;;;;;;45.25;38.75;;;;;;;;5055442;28;45476;-63
2022/01/11 06:23:36;;;;;;;;;41.00;37.25;;;;;;;;5073528;28;45518;-63
2022/01/11 06:26:01;;;;;;;;;40.00;32.00;;;;;;;;5073832;28;45390;-64
2022/01/11 06:28:27;;;;;;;;;40.50;34.50;;;;;;;;5055936;28;45603;-63
2022/01/11 06:30:52;;;;;;;;;41.50;34.75;;;;;;;;5074439;28;45349;-62
2022/01/11 06:33:17;;;;;;;;;53.00;41.50;;;;;;;;5073424;28;45924;-64
2022/01/11 06:35:43;;;;;;;;;46.00;38.00;;;;;;;;5073804;28;45685;-62
2022/01/11 06:38:08;;;;;;;;;48.75;41.75;;;;;;;;5073762;28;45582;-62
2022/01/11 06:40:33;;;;;;;;;42.25;37.00;;;;;;;;5051791;28;45508;-63
2022/01/11 06:42:58;;;;;;;;;46.00;38.00;;;;;;;;5052453;28;47378;-61
2022/01/11 06:45:24;;;;;;;;;43.25;34.75;;;;;;;;5047237;28;45379;-61
2022/01/11 06:47:49;;;;;;;;;39.25;36.50;;;;;;;;5033340;28;45509;-63
2022/01/11 06:50:15;;;;;;;;;39.50;37.00;;;;;;;;5025920;28;45582;-64
2022/01/11 06:52:40;;;;;;;;;36.50;29.25;;;;;;;;5053059;28;46474;-67
2022/01/11 06:55:07;;;;;;;;;42.75;38.25;;;;;;;;5035949;28;45485;-64
2022/01/11 06:57:32;;;;;;;;;38.75;36.75;;;;;;;;5053141;28;45505;-64
2022/01/11 06:59:57;;;;;;;;;40.50;35.50;;;;;;;;5052668;28;46149;-62
2022/01/11 07:02:23;;;;;;;;;41.75;39.50;;;;;;;;5034332;28;48613;-63
2022/01/11 07:04:48;;;;;;;;;46.50;37.50;;;;;;;;5034967;28;46236;-63
2022/01/11 07:07:13;;;;;;;;;38.75;37.00;;;;;;;;5067924;28;45917;-63
2022/01/11 07:09:38;;;;;;;;;46.50;40.00;;;;;;;;5035546;28;45646;-64
2022/01/11 07:12:04;;;;;;;;;46.75;39.25;;;;;;;;5051638;28;45702;-64
2022/01/11 07:14:30;;;;;;;;;42.00;37.75;;;;;;;;5052433;28;45638;-64
2022/01/11 07:16:55;;;;;;;;;42.75;36.25;;;;;;;;5059546;28;45448;-63
2022/01/11 07:19:20;;;;;;;;;40.75;35.75;;;;;;;;5034389;28;45360;-63
2022/01/11 07:21:46;;;;;;;;;40.25;36.75;;;;;;;;5061453;28;45889;-63
2022/01/11 07:24:12;;;;;;;;;42.75;38.25;;;;;;;;5057158;28;45437;-63
2022/01/11 07:26:37;;;;;;;;;45.50;41.25;;;;;;;;5061261;28;45516;-62
2022/01/11 07:29:05;;;;;;;;;44.50;40.50;;;;;;;;5057586;28;45543;-63
2022/01/11 07:31:30;;;;;;;;;42.00;38.25;;;;;;;;5034939;28;46771;-63
2022/01/11 07:33:56;;;;;;;;;47.75;42.50;;;;;;;;5052891;28;45389;-63
2022/01/11 07:36:21;;;;;;;;;39.25;37.25;;;;;;;;5057249;28;45484;-64
2022/01/11 07:38:46;;;;;;;;;41.75;37.50;;;;;;;;5040451;28;45469;-65
2022/01/11 07:41:11;;;;;;;;;43.75;37.00;;;;;;;;5052613;28;45671;-63
2022/01/11 07:43:36;;;;;;;;;46.50;40.00;;;;;;;;5052327;28;45457;-63
2022/01/11 07:46:02;;;;;;;;;50.00;40.75;;;;;;;;5037664;28;45481;-64
2022/01/11 07:48:27;;;;;;;;;46.75;38.50;;;;;;;;5035072;28;45526;-64
2022/01/11 07:50:53;;;;;;;;;55.50;44.50;;;;;;;;5036878;28;48714;-64
2022/01/11 07:53:18;;;;;;;;;50.50;41.50;;;;;;;;5057328;28;45411;-65
2022/01/11 07:55:43;;;;;;;;;39.25;35.00;;;;;;;;5034157;28;45411;-65
2022/01/11 07:58:08;;;;;;;;;43.50;39.00;;;;;;;;5037525;28;45856;-63
2022/01/11 08:00:33;;;;;;;;;53.50;45.50;;;;;;;;5034863;28;47856;-64
2022/01/11 08:02:59;;;;;;;;;49.75;41.25;;;;;;;;5057581;28;49753;-64
2022/01/11 08:05:24;;;;;;;;;50.50;44.75;;;;;;;;5034156;28;45570;-64
2022/01/11 08:07:50;;;;;;;;;50.25;41.25;;;;;;;;5048350;28;45514;-64
2022/01/11 08:10:18;;;;;;;;;50.25;38.50;;;;;;;;5034176;28;47725;-65
2022/01/11 08:12:43;;;;;;;;;55.00;45.50;;;;;;;;5036579;28;45506;-65
2022/01/11 08:15:08;;;;;;;;;60.50;44.50;;;;;;;;5037389;28;45436;-65
2022/01/11 08:17:34;;;;;;;;;53.75;44.50;;;;;;;;5043557;28;45402;-64
2022/01/11 08:19:59;;;;;;;;;58.75;47.50;;;;;;;;5037012;28;47726;-64
2022/01/11 08:22:25;;;;;;;;;52.00;44.00;;;;;;;;5070125;27;45432;-64
2022/01/11 08:24:51;;;;;;;;;54.00;43.75;;;;;;;;5055857;28;45589;-65
2022/01/11 08:27:19;;;;;;;;;53.00;45.00;;;;;;;;5055369;28;45606;-65
2022/01/11 08:29:44;;;;;;;;;56.00;42.50;;;;;;;;5037021;28;47656;-64
2022/01/11 08:32:10;;;;;;;;;55.75;46.25;;;;;;;;5061717;28;45302;-63
2022/01/11 08:34:35;;;;;;;;;57.50;45.00;;;;;;;;5055348;28;45436;-64
2022/01/11 08:37:00;;;;;;;;;57.50;44.50;;;;;;;;5069129;28;45475;-65
2022/01/11 08:39:26;;;;;;;;;49.50;42.50;;;;;;;;5055828;28;46585;-64
2022/01/11 08:41:51;;;;;;;;;49.00;39.75;;;;;;;;5036508;28;45516;-64
2022/01/11 08:44:19;;;;;;;;;56.50;42.75;;;;;;;;5036763;28;45549;-64
2022/01/11 08:46:45;;;;;;;;;46.75;41.50;;;;;;;;5061320;28;45523;-63
2022/01/11 08:49:10;;;;;;;;;49.00;43.00;;;;;;;;5055514;28;45590;-65
2022/01/11 08:51:36;;;;;;;;;49.50;42.25;;;;;;;;5039698;28;45526;-65
2022/01/11 08:54:01;;;;;;;;;60.75;47.50;;;;;;;;5041296;28;45485;-63
2022/01/11 08:56:26;;;;;;;;;56.00;43.75;;;;;;;;5054943;28;45483;-64
2022/01/11 08:58:51;;;;;;;;;53.25;40.50;;;;;;;;5054554;28;45536;-64
2022/01/11 09:01:17;;;;;;;;;48.75;43.75;;;;;;;;5038640;28;45912;-65
2022/01/11 09:03:42;;;;;;;;;56.50;45.50;;;;;;;;5037036;28;45480;-65
2022/01/11 09:06:08;;;;;;;;;52.00;41.75;;;;;;;;5054457;28;45468;-64
2022/01/11 09:08:37;;;;;;;;;63.00;47.00;;;;;;;;5036160;28;45418;-64
2022/01/11 09:11:04;;;;;;;;;50.25;38.50;;;;;;;;5054608;28;45175;-65
2022/01/11 09:13:29;;;;;;;;;49.50;42.25;;;;;;;;5054451;28;45416;-64
2022/01/11 09:15:55;;;;;;;;;63.75;47.50;;;;;;;;5036528;28;45931;-65
2022/01/11 09:18:20;;;;;;;;;29.25;26.25;;;;;;;;5054360;28;46537;-64
2022/01/11 09:20:45;;;;;;;;;44.75;41.00;;;;;;;;5035937;28;45633;-64
2022/01/11 09:23:10;;;;;;;;;52.25;43.50;;;;;;;;5053453;28;45642;-64
2022/01/11 09:25:36;;;;;;;;;51.50;42.50;;;;;;;;5054306;28;45992;-65
2022/01/11 09:28:01;;;;;;;;;53.00;42.50;;;;;;;;5036498;28;48075;-64
2022/01/11 09:30:26;;;;;;;;;56.00;43.50;;;;;;;;5054167;28;45504;-64
2022/01/11 09:32:52;;;;;;;;;50.00;43.75;;;;;;;;5054327;28;45414;-63
2022/01/11 09:35:17;;;;;;;;;58.50;47.25;;;;;;;;5054352;28;45495;-64
2022/01/11 09:37:44;;;;;;;;;53.50;45.50;;;;;;;;5069458;28;48686;-64
2022/01/11 09:40:10;;;;;;;;;50.50;42.00;;;;;;;;5036503;28;45520;-63
2022/01/11 09:42:36;;;;;;;;;53.75;44.75;;;;;;;;5054183;28;44868;-63
2022/01/11 09:45:04;;;;;;;;;51.50;41.25;;;;;;;;5069234;27;45387;-64
2022/01/11 09:47:29;;;;;;;;;51.00;41.00;;;;;;;;5053505;28;45819;-64
2022/01/11 09:49:54;;;;;;;;;56.00;45.50;;;;;;;;5035843;28;45734;-63
2022/01/11 09:52:23;;;;;;;;;53.00;44.75;;;;;;;;5053980;28;45341;-63
2022/01/11 09:54:48;;;;;;;;;59.75;50.50;;;;;;;;5054153;28;45457;-64
2022/01/11 09:57:13;;;;;;;;;60.50;42.00;;;;;;;;5055413;28;45483;-64
2022/01/11 09:59:39;;;;;;;;;59.25;49.75;;;;;;;;5053870;28;45431;-63
2022/01/11 10:02:04;;;;;;;;;55.50;47.25;;;;;;;;5059785;28;45464;-65
2022/01/11 10:04:31;;;;;;;;;56.75;47.00;;;;;;;;5035915;28;46158;-63
2022/01/11 10:06:59;;;;;;;;;60.50;48.50;;;;;;;;5064900;28;45861;-64
2022/01/11 10:09:25;;;;;;;;;50.00;40.25;;;;;;;;5054939;28;45407;-64
2022/01/11 10:11:52;;;;;;;;;57.50;45.75;;;;;;;;5055344;28;45396;-64
2022/01/11 10:14:20;;;;;;;;;58.50;45.25;;;;;;;;5053387;28;45458;-65
2022/01/11 10:16:45;;;;;;;;;60.25;49.25;;;;;;;;5059178;28;45519;-65
2022/01/11 10:19:25;;;;;;;;;61.00;49.50;;;;;;;;5035791;28;45947;-65
2022/01/11 10:21:51;;;;;;;;;51.00;40.25;;;;;;;;5063575;28;45457;-65
2022/01/11 10:24:37;;;;;;;;;61.00;49.25;;;;;;;;5055776;28;45544;-63
2022/01/11 10:27:05;;;;;;;;;54.00;43.75;;;;;;;;5033812;28;47410;-63
2022/01/11 10:29:30;;;;;;;;;48.50;43.25;;;;;;;;5052097;28;45466;-63
2022/01/11 10:31:56;;;;;;;;;55.50;44.25;;;;;;;;5057413;28;45989;-63
2022/01/11 10:34:29;;;;;;;;;54.75;44.25;;;;;;;;5052296;28;45422;-63
2022/01/11 10:36:55;;;;;;;;;57.75;46.00;;;;;;;;5046805;28;47577;-63
2022/01/11 10:39:25;;;;;;;;;57.75;47.00;;;;;;;;5050633;28;45511;-64
2022/01/11 10:41:50;;;;;;;;;59.00;49.50;;;;;;;;5053992;28;45151;-64
2022/01/11 10:44:36;;;;;;;;;64.50;48.75;;;;;;;;5052792;28;45412;-63
2022/01/11 10:47:02;;;;;;;;;65.75;50.25;;;;;;;;5058615;28;45236;-64
2022/01/11 10:49:31;;;;;;;;;67.50;54.00;;;;;;;;5052843;28;45945;-65
2022/01/11 10:52:15;;;;;;;;;60.75;50.25;;;;;;;;5053130;28;45403;-64
2022/01/11 10:54:43;;;;;;;;;61.25;49.00;;;;;;;;5035827;28;45505;-62
2022/01/11 10:57:18;;;;;;;;;60.00;44.00;;;;;;;;5034128;28;47494;-63
2022/01/11 10:59:43;;;;;;;;;63.25;48.25;;;;;;;;5034221;28;45517;-63
2022/01/11 11:02:12;;;;;;;;;63.00;51.50;;;;;;;;5034107;28;45390;-63
2022/01/11 11:04:38;;;;;;;;;66.50;54.00;;;;;;;;5034357;28;45624;-63
2022/01/11 11:07:14;;;;;;;;;65.75;54.00;;;;;;;;5052844;28;46621;-63
2022/01/11 11:09:43;;;;;;;;;71.00;55.00;;;;;;;;5037284;28;45493;-62
2022/01/11 11:12:19;;;;;;;;;60.75;49.50;;;;;;;;5056371;28;45410;-62
2022/01/11 11:14:52;;;;;;;;;61.00;51.25;;;;;;;;5031317;28;45517;-63
2022/01/11 11:17:44;;;;;;;;;60.00;48.25;;;;;;;;5047028;28;47803;-63
2022/01/11 11:20:10;;;;;;;;;57.50;47.25;;;;;;;;5029877;28;45473;-62
2022/01/11 11:22:36;;;;;;;;;57.00;46.25;;;;;;;;5044594;28;45490;-62
2022/01/11 11:25:02;;;;;;;;;63.00;47.75;;;;;;;;5035227;28;45942;-62
2022/01/11 11:27:30;;;;;;;;;54.75;43.00;;;;;;;;5064104;28;47953;-62
2022/01/11 11:29:56;;;;;;;;;64.00;52.75;;;;;;;;5048890;28;45613;-63
2022/01/11 11:32:21;;;;;;;;;63.50;48.25;;;;;;;;5051168;28;45805;-63
2022/01/11 11:34:50;;;;;;;;;62.75;46.75;;;;;;;;5052851;28;45452;-62
2022/01/11 11:37:33;;;;;;;;;57.25;47.50;;;;;;;;5034492;28;48746;-63
2022/01/11 11:40:18;;;;;;;;;55.25;44.00;;;;;;;;5034284;28;46286;-63
2022/01/11 11:42:44;;;;;;;;;63.25;51.75;;;;;;;;5056314;28;45453;-63
2022/01/11 11:45:17;;;;;;;;;58.50;46.75;;;;;;;;5056039;28;45427;-62
2022/01/11 11:47:44;;;;;;;;;58.75;45.50;;;;;;;;5063984;28;47464;-63
2022/01/11 11:50:12;;;;;;;;;50.25;41.75;;;;;;;;5037590;28;45956;-62
2022/01/11 11:52:37;;;;;;;;;58.25;49.00;;;;;;;;5055231;28;45421;-63
2022/01/11 11:55:19;;;;;;;;;61.00;48.75;;;;;;;;5056421;28;45422;-63
2022/01/11 11:57:44;;;;;;;;;56.25;45.50;;;;;;;;5050803;28;46414;-63
2022/01/11 12:00:15;;;;;;;;;55.75;46.00;;;;;;;;5036313;28;45818;-62
2022/01/11 12:02:41;;;;;;;;;67.25;51.50;;;;;;;;5061241;28;45847;-62
2022/01/11 12:05:09;;;;;;;;;55.25;45.75;;;;;;;;5036381;28;45477;-63
2022/01/11 12:07:41;;;;;;;;;57.50;45.00;;;;;;;;5051551;28;46430;-63
2022/01/11 12:10:17;;;;;;;;;55.25;45.00;;;;;;;;5045568;28;45422;-63
2022/01/11 12:12:51;;;;;;;;;57.00;44.75;;;;;;;;5055841;28;45228;-63
2022/01/11 12:15:31;;;;;;;;;55.75;46.50;;;;;;;;5055208;28;45477;-61
2022/01/11 12:17:57;;;;;;;;;61.50;48.00;;;;;;;;5037718;28;47535;-62
2022/01/11 12:20:40;;;;;;;;;53.50;43.00;;;;;;;;5055544;28;45501;-61
2022/01/11 12:23:06;;;;;;;;;59.75;48.00;;;;;;;;5049825;28;45408;-63
2022/01/11 12:25:41;;;;;;;;;54.75;44.50;;;;;;;;5052085;28;45598;-64
2022/01/11 12:28:08;;;;;;;;;51.75;41.75;;;;;;;;5051528;28;46731;-62
2022/01/11 12:30:33;;;;;;;;;54.75;45.00;;;;;;;;5037243;28;45534;-63
2022/01/11 12:33:10;;;;;;;;;56.25;45.25;;;;;;;;5059744;28;45495;-64
2022/01/11 12:36:08;;;;;;;;;62.50;47.00;;;;;;;;5054562;28;45444;-62
2022/01/11 12:38:33;;;;;;;;;51.50;43.25;;;;;;;;4999175;28;47720;-63
2022/01/11 12:41:32;;;;;;;;;53.25;43.25;;;;;;;;5011575;28;45449;-63
2022/01/11 12:44:31;;;;;;;;;55.50;45.75;;;;;;;;4939710;28;45505;-62
2022/01/11 12:47:01;;;;;;;;;52.25;44.75;;;;;;;;4950464;28;46325;-62
2022/01/11 12:49:27;;;;;;;;;49.50;41.00;;;;;;;;4936782;28;47412;-62
2022/01/11 12:51:56;;;;;;;;;49.75;40.25;;;;;;;;4948563;28;45470;-63
2022/01/11 12:54:26;;;;;;;;;56.75;44.50;;;;;;;;4954174;28;45497;-63
2022/01/11 12:56:54;;;;;;;;;53.25;44.25;;;;;;;;4954514;28;45393;-62
2022/01/11 12:59:20;;;;;;;;;58.00;46.75;;;;;;;;4957007;28;46450;-62
2022/01/11 13:01:46;;;;;;;;;47.00;39.25;;;;;;;;4958865;28;45567;-64
2022/01/11 13:04:11;;;;;;;;;57.75;45.25;;;;;;;;4938111;28;45456;-63
2022/01/11 13:06:37;;;;;;;;;53.00;42.50;;;;;;;;4962375;28;45423;-64
2022/01/11 13:09:08;;;;;;;;;51.00;42.00;;;;;;;;4958490;28;45694;-63
2022/01/11 13:11:35;;;;;;;;;57.00;45.75;;;;;;;;4954438;28;45529;-63
2022/01/11 13:16:51;;;;;;;;;54.50;43.75;;;;;;;;4968519;28;45465;-64
2022/01/11 13:19:16;;;;;;;;;53.50;44.25;;;;;;;;5003351;28;45551;-65
2022/01/11 13:21:42;;;;;;;;;52.50;44.00;;;;;;;;5042829;28;46817;-64
2022/01/11 13:26:49;;;;;;;;;58.00;45.25;;;;;;;;5058979;28;45443;-64
2022/01/11 13:29:16;;;;;;;;;51.75;42.50;;;;;;;;5054321;28;45917;-64
2022/01/11 13:31:41;;;;;;;;;55.25;44.00;;;;;;;;5059714;28;45477;-64
2022/01/11 13:34:08;;;;;;;;;56.25;44.00;;;;;;;;5068804;28;45455;-64
2022/01/11 13:36:34;;;;;;;;;54.50;44.00;;;;;;;;5039511;28;45720;-64
2022/01/11 13:39:06;;;;;;;;;55.50;45.00;;;;;;;;5059090;28;45514;-64
2022/01/11 13:41:32;;;;;;;;;58.00;44.75;;;;;;;;5054619;28;45366;-63
2022/01/11 13:43:58;;;;;;;;;55.75;44.25;;;;;;;;5054499;28;45596;-64
2022/01/11 13:46:24;;;;;;;;;57.75;46.75;;;;;;;;5054090;28;45488;-64
2022/01/11 13:48:51;;;;;;;;;53.75;42.25;;;;;;;;5054132;28;45544;-64
2022/01/11 13:51:22;;;;;;;;;53.00;44.25;;;;;;;;5059600;28;45820;-63
2022/01/11 13:53:50;;;;;;;;;54.50;45.25;;;;;;;;5060666;28;45574;-64
2022/01/11 13:56:16;;;;;;;;;61.25;49.00;;;;;;;;5062960;28;45434;-64
2022/01/11 13:58:49;;;;;;;;;56.25;44.50;;;;;;;;5053790;28;45640;-63
2022/01/11 14:01:15;;;;;;;;;59.00;46.50;;;;;;;;5055108;28;45416;-64
2022/01/11 14:03:40;;;;;;;;;47.00;38.75;;;;;;;;5054149;28;45398;-64
2022/01/11 14:06:13;;;;;;;;;63.50;51.75;;;;;;;;5055183;28;45521;-63
2022/01/11 14:08:43;;;;;;;;;67.00;54.50;;;;;;;;5056482;28;45635;-63
2022/01/11 14:11:10;;;;;;;;;70.00;55.75;;;;;;;;5053092;28;45457;-63
2022/01/11 14:13:35;;;;;;;;;61.00;48.50;;;;;;;;5053334;28;45445;-63
2022/01/11 14:16:14;;;;;;;;;57.75;47.00;;;;;;;;5053911;28;45455;-63
2022/01/11 14:18:40;;;;;;;;;56.50;46.25;;;;;;;;5051845;28;47480;-63
2022/01/11 14:21:10;;;;;;;;;54.75;44.25;;;;;;;;5085660;27;45466;-63
2022/01/11 14:23:36;;;;;;;;;56.25;46.00;;;;;;;;5052069;28;45599;-63